sensor_id;sensor_type;location;lat;lon;timestamp;pressure;altitude;pressure_sealevel;temperature;humidity
43804;BME280;29430;52.924;-2.388;2023-06-14T00:02:53;99507.97;;;17.74;44.32
43804;BME280;29430;52.924;-2.388;2023-06-14T00:07:47;99509.31;;;17.66;44.57
43804;BME280;29430;52.924;-2.388;2023-06-14T00:12:40;99504.34;;;17.58;44.64
43804;BME280;29430;52.924;-2.388;2023-06-14T00:17:32;99508.97;;;17.47;44.95
43804;BME280;29430;52.924;-2.388;2023-06-14T00:22:26;99508.66;;;17.38;45.13
43804;BME280;29430;52.924;-2.388;2023-06-14T00:27:20;99512.44;;;17.27;45.36
43804;BME280;29430;52.924;-2.388;2023-06-14T00:32:11;99513.22;;;17.17;45.67
43804;BME280;29430;52.924;-2.388;2023-06-14T00:37:03;99521.13;;;17.08;45.59
43804;BME280;29430;52.924;-2.388;2023-06-14T00:41:55;99518.03;;;16.94;45.98
43804;BME280;29430;52.924;-2.388;2023-06-14T00:46:47;99513.28;;;16.85;45.87
43804;BME280;29430;52.924;-2.388;2023-06-14T00:51:39;99515.94;;;16.74;46.06
43804;BME280;29430;52.924;-2.388;2023-06-14T00:56:31;99512.84;;;16.60;46.65
43804;BME280;29430;52.924;-2.388;2023-06-14T01:01:22;99521.00;;;16.50;46.81
43804;BME280;29430;52.924;-2.388;2023-06-14T01:06:23;99524.72;;;16.39;46.95
43804;BME280;29430;52.924;-2.388;2023-06-14T01:11:41;99520.47;;;16.21;45.56
43804;BME280;29430;52.924;-2.388;2023-06-14T01:16:38;99526.31;;;16.02;43.97
43804;BME280;29430;52.924;-2.388;2023-06-14T01:21:32;99512.50;;;15.87;42.77
43804;BME280;29430;52.924;-2.388;2023-06-14T01:26:28;99525.16;;;15.71;41.83
43804;BME280;29430;52.924;-2.388;2023-06-14T01:31:20;99524.97;;;15.55;42.89
43804;BME280;29430;52.924;-2.388;2023-06-14T01:36:13;99528.09;;;15.42;43.97
43804;BME280;29430;52.924;-2.388;2023-06-14T01:41:06;99519.13;;;15.25;45.33
43804;BME280;29430;52.924;-2.388;2023-06-14T01:45:58;99519.75;;;15.10;47.06
43804;BME280;29430;52.924;-2.388;2023-06-14T01:50:52;99519.84;;;14.98;47.83
43804;BME280;29430;52.924;-2.388;2023-06-14T01:55:44;99513.66;;;14.85;48.72
43804;BME280;29430;52.924;-2.388;2023-06-14T02:00:36;99510.56;;;14.77;49.78
43804;BME280;29430;52.924;-2.388;2023-06-14T02:05:27;99524.59;;;14.68;50.42
43804;BME280;29430;52.924;-2.388;2023-06-14T02:10:20;99511.63;;;14.59;51.58
43804;BME280;29430;52.924;-2.388;2023-06-14T02:15:11;99510.63;;;14.48;52.64
43804;BME280;29430;52.924;-2.388;2023-06-14T02:20:09;99514.34;;;14.42;52.74
43804;BME280;29430;52.924;-2.388;2023-06-14T02:25:01;99521.84;;;14.35;53.40
43804;BME280;29430;52.924;-2.388;2023-06-14T02:29:53;99525.09;;;14.31;54.38
43804;BME280;29430;52.924;-2.388;2023-06-14T02:34:45;99522.84;;;14.28;54.67
43804;BME280;29430;52.924;-2.388;2023-06-14T02:39:41;99525.00;;;14.26;54.71
43804;BME280;29430;52.924;-2.388;2023-06-14T02:44:32;99529.03;;;14.24;54.44
43804;BME280;29430;52.924;-2.388;2023-06-14T02:49:24;99535.66;;;14.28;54.80
43804;BME280;29430;52.924;-2.388;2023-06-14T02:54:16;99519.56;;;14.26;54.75
43804;BME280;29430;52.924;-2.388;2023-06-14T02:59:08;99529.41;;;14.27;55.89
43804;BME280;29430;52.924;-2.388;2023-06-14T03:04:01;99520.28;;;14.22;55.77
43804;BME280;29430;52.924;-2.388;2023-06-14T03:08:55;99524.50;;;14.12;56.69
43804;BME280;29430;52.924;-2.388;2023-06-14T03:13:48;99524.91;;;14.04;57.30
43804;BME280;29430;52.924;-2.388;2023-06-14T03:18:39;99534.78;;;13.93;57.77
43804;BME280;29430;52.924;-2.388;2023-06-14T03:23:31;99538.38;;;13.82;58.50
43804;BME280;29430;52.924;-2.388;2023-06-14T03:28:23;99535.97;;;13.69;59.17
43804;BME280;29430;52.924;-2.388;2023-06-14T03:33:15;99536.56;;;13.59;59.24
43804;BME280;29430;52.924;-2.388;2023-06-14T03:38:07;99542.28;;;13.57;60.28
43804;BME280;29430;52.924;-2.388;2023-06-14T03:42:58;99542.19;;;13.52;60.54
43804;BME280;29430;52.924;-2.388;2023-06-14T03:47:50;99554.03;;;13.46;60.62
43804;BME280;29430;52.924;-2.388;2023-06-14T03:52:42;99551.09;;;13.36;61.46
43804;BME280;29430;52.924;-2.388;2023-06-14T03:57:35;99552.97;;;13.23;61.81
43804;BME280;29430;52.924;-2.388;2023-06-14T04:02:26;99553.34;;;13.15;62.23
43804;BME280;29430;52.924;-2.388;2023-06-14T04:07:20;99547.66;;;13.05;62.45
43804;BME280;29430;52.924;-2.388;2023-06-14T04:12:12;99551.81;;;12.96;63.00
43804;BME280;29430;52.924;-2.388;2023-06-14T04:17:04;99556.56;;;12.88;63.62
43804;BME280;29430;52.924;-2.388;2023-06-14T04:21:56;99553.94;;;12.82;63.76
43804;BME280;29430;52.924;-2.388;2023-06-14T04:26:48;99557.75;;;12.81;64.22
43804;BME280;29430;52.924;-2.388;2023-06-14T04:31:40;99552.56;;;12.79;64.23
43804;BME280;29430;52.924;-2.388;2023-06-14T04:36:33;99559.06;;;12.90;65.03
43804;BME280;29430;52.924;-2.388;2023-06-14T04:41:28;99550.97;;;13.31;64.83
43804;BME280;29430;52.924;-2.388;2023-06-14T04:46:22;99560.56;;;13.86;63.50
43804;BME280;29430;52.924;-2.388;2023-06-14T04:51:13;99559.25;;;14.51;63.06
43804;BME280;29430;52.924;-2.388;2023-06-14T04:56:06;99557.69;;;15.06;59.98
43804;BME280;29430;52.924;-2.388;2023-06-14T05:00:59;99555.34;;;15.59;57.75
43804;BME280;29430;52.924;-2.388;2023-06-14T05:05:51;99542.22;;;16.05;55.88
43804;BME280;29430;52.924;-2.388;2023-06-14T05:10:44;99544.25;;;16.47;53.93
43804;BME280;29430;52.924;-2.388;2023-06-14T05:15:36;99545.94;;;16.91;53.10
43804;BME280;29430;52.924;-2.388;2023-06-14T05:20:28;99550.06;;;17.36;52.12
43804;BME280;29430;52.924;-2.388;2023-06-14T05:25:20;99548.94;;;17.91;49.98
43804;BME280;29430;52.924;-2.388;2023-06-14T05:30:13;99544.06;;;18.34;49.46
43804;BME280;29430;52.924;-2.388;2023-06-14T05:35:05;99544.59;;;18.67;48.42
43804;BME280;29430;52.924;-2.388;2023-06-14T05:39:57;99544.84;;;19.11;47.59
43804;BME280;29430;52.924;-2.388;2023-06-14T05:44:49;99540.03;;;19.53;47.09
43804;BME280;29430;52.924;-2.388;2023-06-14T05:49:40;99534.94;;;19.86;45.75
43804;BME280;29430;52.924;-2.388;2023-06-14T05:54:32;99542.19;;;20.16;44.92
43804;BME280;29430;52.924;-2.388;2023-06-14T05:59:23;99548.84;;;20.50;44.16
43804;BME280;29430;52.924;-2.388;2023-06-14T06:04:15;99546.13;;;20.79;43.27
43804;BME280;29430;52.924;-2.388;2023-06-14T06:09:07;99548.81;;;21.14;42.75
43804;BME280;29430;52.924;-2.388;2023-06-14T06:13:59;99555.00;;;21.49;41.76
43804;BME280;29430;52.924;-2.388;2023-06-14T06:18:51;99549.19;;;21.55;41.24
43804;BME280;29430;52.924;-2.388;2023-06-14T06:23:43;99556.22;;;21.86;40.86
43804;BME280;29430;52.924;-2.388;2023-06-14T06:28:35;99558.66;;;22.11;40.92
43804;BME280;29430;52.924;-2.388;2023-06-14T06:33:27;99551.88;;;22.42;40.02
43804;BME280;29430;52.924;-2.388;2023-06-14T06:38:18;99553.13;;;22.82;40.68
43804;BME280;29430;52.924;-2.388;2023-06-14T06:43:10;99555.78;;;23.76;39.61
43804;BME280;29430;52.924;-2.388;2023-06-14T06:48:05;99563.59;;;24.47;38.40
43804;BME280;29430;52.924;-2.388;2023-06-14T06:52:56;99567.69;;;25.26;37.72
43804;BME280;29430;52.924;-2.388;2023-06-14T06:57:49;99560.13;;;26.07;36.01
43804;BME280;29430;52.924;-2.388;2023-06-14T07:02:41;99561.91;;;26.82;34.32
43804;BME280;29430;52.924;-2.388;2023-06-14T07:07:33;99560.38;;;27.02;34.29
43804;BME280;29430;52.924;-2.388;2023-06-14T07:12:26;99552.03;;;27.49;34.05
43804;BME280;29430;52.924;-2.388;2023-06-14T07:17:17;99562.91;;;27.72;32.80
43804;BME280;29430;52.924;-2.388;2023-06-14T07:22:09;99576.59;;;27.85;31.54
43804;BME280;29430;52.924;-2.388;2023-06-14T07:27:00;99567.06;;;27.86;31.16
43804;BME280;29430;52.924;-2.388;2023-06-14T07:31:53;99569.63;;;27.71;32.46
43804;BME280;29430;52.924;-2.388;2023-06-14T07:36:44;99575.66;;;27.73;31.72
43804;BME280;29430;52.924;-2.388;2023-06-14T07:41:36;99577.03;;;27.19;32.49
43804;BME280;29430;52.924;-2.388;2023-06-14T07:46:28;99567.50;;;27.20;32.39
43804;BME280;29430;52.924;-2.388;2023-06-14T07:51:19;99570.13;;;27.34;32.12
43804;BME280;29430;52.924;-2.388;2023-06-14T07:56:11;99573.22;;;27.32;31.85
43804;BME280;29430;52.924;-2.388;2023-06-14T08:01:03;99586.38;;;27.14;32.89
43804;BME280;29430;52.924;-2.388;2023-06-14T08:05:57;99579.63;;;27.33;32.78
43804;BME280;29430;52.924;-2.388;2023-06-14T08:10:49;99574.19;;;27.45;31.95
43804;BME280;29430;52.924;-2.388;2023-06-14T08:15:41;99588.09;;;27.45;32.24
43804;BME280;29430;52.924;-2.388;2023-06-14T08:20:33;99581.81;;;27.57;32.90
43804;BME280;29430;52.924;-2.388;2023-06-14T08:25:26;99581.78;;;27.96;32.47
43804;BME280;29430;52.924;-2.388;2023-06-14T08:30:17;99583.44;;;27.97;31.81
43804;BME280;29430;52.924;-2.388;2023-06-14T08:35:09;99570.38;;;28.10;32.39
43804;BME280;29430;52.924;-2.388;2023-06-14T08:40:01;99580.44;;;28.44;31.76
43804;BME280;29430;52.924;-2.388;2023-06-14T08:44:57;99558.38;;;28.51;31.58
43804;BME280;29430;52.924;-2.388;2023-06-14T08:49:49;99556.63;;;28.47;31.43
43804;BME280;29430;52.924;-2.388;2023-06-14T08:54:43;99557.16;;;28.40;31.18
43804;BME280;29430;52.924;-2.388;2023-06-14T08:59:35;99559.34;;;28.55;31.49
43804;BME280;29430;52.924;-2.388;2023-06-14T09:04:30;99555.28;;;28.86;30.29
43804;BME280;29430;52.924;-2.388;2023-06-14T09:09:25;99566.03;;;29.09;30.29
43804;BME280;29430;52.924;-2.388;2023-06-14T09:14:23;99566.13;;;29.00;30.35
43804;BME280;29430;52.924;-2.388;2023-06-14T09:19:24;99571.63;;;29.09;31.07
43804;BME280;29430;52.924;-2.388;2023-06-14T09:24:16;99586.56;;;29.25;31.39
43804;BME280;29430;52.924;-2.388;2023-06-14T09:29:09;99570.06;;;29.33;31.42
43804;BME280;29430;52.924;-2.388;2023-06-14T09:34:02;99572.16;;;29.60;30.02
43804;BME280;29430;52.924;-2.388;2023-06-14T09:39:02;99575.91;;;29.89;30.40
43804;BME280;29430;52.924;-2.388;2023-06-14T09:43:58;99564.56;;;29.61;30.25
43804;BME280;29430;52.924;-2.388;2023-06-14T09:48:51;99563.66;;;29.57;30.21
43804;BME280;29430;52.924;-2.388;2023-06-14T09:53:43;99567.03;;;29.75;31.40
43804;BME280;29430;52.924;-2.388;2023-06-14T09:58:39;99571.00;;;29.74;30.06
43804;BME280;29430;52.924;-2.388;2023-06-14T10:03:32;99563.53;;;29.65;29.99
43804;BME280;29430;52.924;-2.388;2023-06-14T10:08:45;99574.69;;;29.78;30.29
43804;BME280;29430;52.924;-2.388;2023-06-14T10:13:37;99571.44;;;29.76;30.38
43804;BME280;29430;52.924;-2.388;2023-06-14T10:19:00;99571.22;;;29.81;29.89
43804;BME280;29430;52.924;-2.388;2023-06-14T10:23:53;99559.81;;;29.61;29.72
43804;BME280;29430;52.924;-2.388;2023-06-14T10:28:56;99570.16;;;29.36;30.65
43804;BME280;29430;52.924;-2.388;2023-06-14T10:33:55;99563.53;;;29.53;31.68
43804;BME280;29430;52.924;-2.388;2023-06-14T10:49:04;99556.09;;;29.94;29.53
43804;BME280;29430;52.924;-2.388;2023-06-14T10:53:59;99565.16;;;29.79;29.91
43804;BME280;29430;52.924;-2.388;2023-06-14T10:58:50;99556.88;;;29.70;29.65
43804;BME280;29430;52.924;-2.388;2023-06-14T11:03:43;99555.47;;;29.76;30.49
43804;BME280;29430;52.924;-2.388;2023-06-14T11:09:11;99555.81;;;29.99;30.95
43804;BME280;29430;52.924;-2.388;2023-06-14T11:14:11;99547.88;;;30.14;29.27
43804;BME280;29430;52.924;-2.388;2023-06-14T11:19:03;99546.41;;;29.92;30.66
43804;BME280;29430;52.924;-2.388;2023-06-14T11:23:54;99540.19;;;30.11;30.32
43804;BME280;29430;52.924;-2.388;2023-06-14T11:28:47;99547.06;;;30.13;30.48
43804;BME280;29430;52.924;-2.388;2023-06-14T11:33:39;99548.78;;;30.18;30.01
43804;BME280;29430;52.924;-2.388;2023-06-14T11:38:30;99547.78;;;29.98;29.48
43804;BME280;29430;52.924;-2.388;2023-06-14T11:43:26;99548.16;;;29.84;30.13
43804;BME280;29430;52.924;-2.388;2023-06-14T11:48:18;99544.19;;;29.97;31.60
43804;BME280;29430;52.924;-2.388;2023-06-14T11:53:10;99547.84;;;30.26;30.46
43804;BME280;29430;52.924;-2.388;2023-06-14T11:58:02;99532.94;;;30.22;30.16
43804;BME280;29430;52.924;-2.388;2023-06-14T12:02:55;99535.00;;;30.25;30.25
43804;BME280;29430;52.924;-2.388;2023-06-14T12:07:49;99543.84;;;29.87;30.42
43804;BME280;29430;52.924;-2.388;2023-06-14T12:12:41;99532.34;;;29.26;30.94
43804;BME280;29430;52.924;-2.388;2023-06-14T12:17:34;99535.19;;;29.05;31.74
43804;BME280;29430;52.924;-2.388;2023-06-14T12:22:27;99534.47;;;28.96;32.84
43804;BME280;29430;52.924;-2.388;2023-06-14T12:27:21;99539.94;;;28.92;32.15
43804;BME280;29430;52.924;-2.388;2023-06-14T12:32:14;99530.81;;;28.71;32.05
43804;BME280;29430;52.924;-2.388;2023-06-14T12:37:06;99531.25;;;28.39;32.44
43804;BME280;29430;52.924;-2.388;2023-06-14T12:41:58;99519.94;;;28.36;33.13
43804;BME280;29430;52.924;-2.388;2023-06-14T12:46:50;99526.38;;;28.36;32.29
43804;BME280;29430;52.924;-2.388;2023-06-14T12:51:46;99523.72;;;28.19;32.64
43804;BME280;29430;52.924;-2.388;2023-06-14T12:56:38;99520.63;;;27.91;32.35
43804;BME280;29430;52.924;-2.388;2023-06-14T13:01:30;99523.53;;;27.73;34.03
43804;BME280;29430;52.924;-2.388;2023-06-14T13:06:22;99537.81;;;27.42;31.74
43804;BME280;29430;52.924;-2.388;2023-06-14T13:11:16;99537.84;;;27.24;33.14
43804;BME280;29430;52.924;-2.388;2023-06-14T13:16:08;99533.16;;;27.16;32.40
43804;BME280;29430;52.924;-2.388;2023-06-14T13:20:59;99546.44;;;27.02;32.99
43804;BME280;29430;52.924;-2.388;2023-06-14T13:25:52;99539.81;;;26.85;33.17
43804;BME280;29430;52.924;-2.388;2023-06-14T13:30:44;99536.03;;;26.81;33.56
43804;BME280;29430;52.924;-2.388;2023-06-14T13:35:36;99534.25;;;26.85;34.31
43804;BME280;29430;52.924;-2.388;2023-06-14T13:40:28;99520.16;;;26.82;34.50
43804;BME280;29430;52.924;-2.388;2023-06-14T13:45:19;99528.38;;;26.69;34.38
43804;BME280;29430;52.924;-2.388;2023-06-14T13:50:11;99530.81;;;26.62;34.63
43804;BME280;29430;52.924;-2.388;2023-06-14T13:55:04;99521.69;;;26.53;34.96
43804;BME280;29430;52.924;-2.388;2023-06-14T13:59:56;99536.25;;;26.50;34.40
43804;BME280;29430;52.924;-2.388;2023-06-14T14:04:52;99531.16;;;26.52;35.02
43804;BME280;29430;52.924;-2.388;2023-06-14T14:09:45;99532.28;;;26.51;34.61
43804;BME280;29430;52.924;-2.388;2023-06-14T14:14:37;99539.69;;;26.47;34.62
43804;BME280;29430;52.924;-2.388;2023-06-14T14:19:28;99528.38;;;26.43;34.91
43804;BME280;29430;52.924;-2.388;2023-06-14T14:24:20;99526.09;;;26.45;34.97
43804;BME280;29430;52.924;-2.388;2023-06-14T14:29:11;99539.81;;;26.50;34.36
43804;BME280;29430;52.924;-2.388;2023-06-14T14:34:03;99519.56;;;26.41;34.63
43804;BME280;29430;52.924;-2.388;2023-06-14T14:38:55;99516.59;;;26.46;35.32
43804;BME280;29430;52.924;-2.388;2023-06-14T14:43:46;99510.22;;;26.45;34.65
43804;BME280;29430;52.924;-2.388;2023-06-14T14:48:38;99503.66;;;26.41;34.57
43804;BME280;29430;52.924;-2.388;2023-06-14T14:53:30;99514.16;;;26.36;35.77
43804;BME280;29430;52.924;-2.388;2023-06-14T14:58:22;99517.78;;;26.27;35.28
43804;BME280;29430;52.924;-2.388;2023-06-14T15:09:12;99522.19;;;26.20;34.86
43804;BME280;29430;52.924;-2.388;2023-06-14T15:14:51;99510.25;;;26.11;35.32
43804;BME280;29430;52.924;-2.388;2023-06-14T15:19:49;99513.34;;;26.18;35.79
43804;BME280;29430;52.924;-2.388;2023-06-14T15:24:44;99514.34;;;26.22;35.45
43804;BME280;29430;52.924;-2.388;2023-06-14T15:29:42;99511.75;;;26.17;34.92
43804;BME280;29430;52.924;-2.388;2023-06-14T15:34:37;99502.72;;;26.11;35.32
43804;BME280;29430;52.924;-2.388;2023-06-14T15:39:33;99508.13;;;26.07;35.98
43804;BME280;29430;52.924;-2.388;2023-06-14T15:44:27;99512.53;;;26.08;35.46
43804;BME280;29430;52.924;-2.388;2023-06-14T15:49:21;99503.72;;;26.15;35.02
43804;BME280;29430;52.924;-2.388;2023-06-14T15:54:15;99506.00;;;26.22;35.33
43804;BME280;29430;52.924;-2.388;2023-06-14T15:59:10;99499.97;;;26.20;34.71
43804;BME280;29430;52.924;-2.388;2023-06-14T16:04:05;99505.66;;;26.15;35.10
43804;BME280;29430;52.924;-2.388;2023-06-14T16:08:59;99514.69;;;26.03;34.49
43804;BME280;29430;52.924;-2.388;2023-06-14T16:13:56;99511.03;;;25.94;34.93
43804;BME280;29430;52.924;-2.388;2023-06-14T16:18:51;99516.25;;;25.86;35.52
43804;BME280;29430;52.924;-2.388;2023-06-14T16:23:44;99514.63;;;25.85;35.13
43804;BME280;29430;52.924;-2.388;2023-06-14T16:28:40;99501.56;;;25.86;35.41
43804;BME280;29430;52.924;-2.388;2023-06-14T16:33:39;99502.53;;;25.90;34.26
43804;BME280;29430;52.924;-2.388;2023-06-14T16:38:32;99506.13;;;25.90;34.99
43804;BME280;29430;52.924;-2.388;2023-06-14T16:43:26;99510.69;;;25.86;34.50
43804;BME280;29430;52.924;-2.388;2023-06-14T16:48:21;99506.44;;;25.80;33.72
43804;BME280;29430;52.924;-2.388;2023-06-14T16:53:17;99505.28;;;25.72;34.45
43804;BME280;29430;52.924;-2.388;2023-06-14T16:58:10;99505.78;;;25.66;34.05
43804;BME280;29430;52.924;-2.388;2023-06-14T17:03:06;99509.66;;;25.56;33.96
43804;BME280;29430;52.924;-2.388;2023-06-14T17:08:00;99514.91;;;25.49;34.41
43804;BME280;29430;52.924;-2.388;2023-06-14T17:12:53;99509.47;;;25.44;34.35
43804;BME280;29430;52.924;-2.388;2023-06-14T17:17:46;99508.66;;;25.43;35.08
43804;BME280;29430;52.924;-2.388;2023-06-14T17:22:43;99516.50;;;25.41;34.60
43804;BME280;29430;52.924;-2.388;2023-06-14T17:27:50;99506.38;;;25.36;34.94
43804;BME280;29430;52.924;-2.388;2023-06-14T17:32:42;99511.72;;;25.33;34.63
43804;BME280;29430;52.924;-2.388;2023-06-14T17:37:34;99520.38;;;25.31;34.79
43804;BME280;29430;52.924;-2.388;2023-06-14T17:42:26;99511.84;;;25.28;34.63
43804;BME280;29430;52.924;-2.388;2023-06-14T17:47:17;99518.03;;;25.25;34.99
43804;BME280;29430;52.924;-2.388;2023-06-14T17:52:27;99530.09;;;25.20;34.91
43804;BME280;29430;52.924;-2.388;2023-06-14T17:57:19;99521.09;;;25.14;35.53
43804;BME280;29430;52.924;-2.388;2023-06-14T18:02:10;99525.16;;;25.08;35.84
43804;BME280;29430;52.924;-2.388;2023-06-14T18:07:02;99528.06;;;25.03;34.17
43804;BME280;29430;52.924;-2.388;2023-06-14T18:11:54;99518.09;;;24.93;34.94
43804;BME280;29430;52.924;-2.388;2023-06-14T18:16:49;99518.41;;;24.92;35.98
43804;BME280;29430;52.924;-2.388;2023-06-14T18:21:46;99526.53;;;24.88;36.47
43804;BME280;29430;52.924;-2.388;2023-06-14T18:26:37;99525.84;;;24.82;36.95
43804;BME280;29430;52.924;-2.388;2023-06-14T18:31:29;99533.63;;;24.72;37.67
43804;BME280;29430;52.924;-2.388;2023-06-14T18:36:22;99548.47;;;24.53;38.28
43804;BME280;29430;52.924;-2.388;2023-06-14T18:41:14;99542.78;;;24.36;38.82
43804;BME280;29430;52.924;-2.388;2023-06-14T18:46:09;99544.69;;;24.26;39.00
43804;BME280;29430;52.924;-2.388;2023-06-14T18:51:02;99544.09;;;24.16;38.83
43804;BME280;29430;52.924;-2.388;2023-06-14T18:55:54;99547.44;;;24.04;39.47
43804;BME280;29430;52.924;-2.388;2023-06-14T19:00:46;99541.94;;;23.90;39.78
43804;BME280;29430;52.924;-2.388;2023-06-14T19:05:40;99553.00;;;23.76;40.11
43804;BME280;29430;52.924;-2.388;2023-06-14T19:10:32;99554.84;;;23.67;40.88
43804;BME280;29430;52.924;-2.388;2023-06-14T19:15:24;99550.25;;;23.62;41.00
43804;BME280;29430;52.924;-2.388;2023-06-14T19:20:17;99550.25;;;23.48;41.20
43804;BME280;29430;52.924;-2.388;2023-06-14T19:25:09;99556.78;;;23.38;41.35
43804;BME280;29430;52.924;-2.388;2023-06-14T19:30:02;99552.09;;;23.25;41.46
43804;BME280;29430;52.924;-2.388;2023-06-14T19:34:55;99560.88;;;23.13;41.93
43804;BME280;29430;52.924;-2.388;2023-06-14T19:39:49;99562.50;;;23.00;42.60
43804;BME280;29430;52.924;-2.388;2023-06-14T19:44:41;99566.34;;;22.85;43.06
43804;BME280;29430;52.924;-2.388;2023-06-14T19:49:33;99573.25;;;22.69;43.38
43804;BME280;29430;52.924;-2.388;2023-06-14T19:54:24;99579.25;;;22.57;43.84
43804;BME280;29430;52.924;-2.388;2023-06-14T19:59:16;99587.81;;;22.42;44.10
43804;BME280;29430;52.924;-2.388;2023-06-14T20:04:08;99586.84;;;22.27;44.80
43804;BME280;29430;52.924;-2.388;2023-06-14T20:08:59;99593.75;;;22.11;44.90
43804;BME280;29430;52.924;-2.388;2023-06-14T20:13:51;99606.41;;;21.93;45.56
43804;BME280;29430;52.924;-2.388;2023-06-14T20:18:43;99610.47;;;21.76;46.06
43804;BME280;29430;52.924;-2.388;2023-06-14T20:23:35;99607.38;;;21.59;46.87
43804;BME280;29430;52.924;-2.388;2023-06-14T20:28:27;99621.53;;;21.47;47.54
43804;BME280;29430;52.924;-2.388;2023-06-14T20:33:19;99626.94;;;21.33;47.84
43804;BME280;29430;52.924;-2.388;2023-06-14T20:38:11;99635.06;;;21.19;48.43
43804;BME280;29430;52.924;-2.388;2023-06-14T20:43:03;99641.28;;;21.06;48.84
43804;BME280;29430;52.924;-2.388;2023-06-14T20:47:57;99639.22;;;20.87;49.50
43804;BME280;29430;52.924;-2.388;2023-06-14T20:52:49;99648.44;;;20.72;49.79
43804;BME280;29430;52.924;-2.388;2023-06-14T20:57:41;99647.41;;;20.58;50.28
43804;BME280;29430;52.924;-2.388;2023-06-14T21:02:33;99653.03;;;20.43;50.28
43804;BME280;29430;52.924;-2.388;2023-06-14T21:07:25;99656.69;;;20.28;51.39
43804;BME280;29430;52.924;-2.388;2023-06-14T21:12:17;99659.50;;;20.12;51.50
43804;BME280;29430;52.924;-2.388;2023-06-14T21:17:10;99662.31;;;20.02;52.08
43804;BME280;29430;52.924;-2.388;2023-06-14T21:22:02;99665.97;;;19.87;52.37
43804;BME280;29430;52.924;-2.388;2023-06-14T21:26:57;99679.44;;;19.73;52.89
43804;BME280;29430;52.924;-2.388;2023-06-14T21:31:48;99681.72;;;19.56;53.59
43804;BME280;29430;52.924;-2.388;2023-06-14T21:36:40;99683.66;;;19.45;53.54
43804;BME280;29430;52.924;-2.388;2023-06-14T21:41:32;99676.78;;;19.32;54.28
43804;BME280;29430;52.924;-2.388;2023-06-14T21:46:23;99678.16;;;19.19;54.46
43804;BME280;29430;52.924;-2.388;2023-06-14T21:51:15;99688.63;;;19.07;54.86
43804;BME280;29430;52.924;-2.388;2023-06-14T21:56:07;99692.75;;;18.94;55.40
43804;BME280;29430;52.924;-2.388;2023-06-14T22:00:59;99688.03;;;18.84;55.66
43804;BME280;29430;52.924;-2.388;2023-06-14T22:05:50;99685.56;;;18.72;56.06
43804;BME280;29430;52.924;-2.388;2023-06-14T22:10:42;99680.84;;;18.63;56.68
43804;BME280;29430;52.924;-2.388;2023-06-14T22:15:34;99699.81;;;18.54;57.27
43804;BME280;29430;52.924;-2.388;2023-06-14T22:20:26;99707.19;;;18.43;57.60
43804;BME280;29430;52.924;-2.388;2023-06-14T22:25:20;99707.16;;;18.33;58.39
43804;BME280;29430;52.924;-2.388;2023-06-14T22:30:13;99705.19;;;18.23;58.65
43804;BME280;29430;52.924;-2.388;2023-06-14T22:35:06;99726.84;;;18.14;58.97
43804;BME280;29430;52.924;-2.388;2023-06-14T22:39:58;99713.91;;;18.04;59.63
43804;BME280;29430;52.924;-2.388;2023-06-14T22:44:50;99705.06;;;17.92;59.93
43804;BME280;29430;52.924;-2.388;2023-06-14T22:49:42;99708.28;;;17.84;60.56
43804;BME280;29430;52.924;-2.388;2023-06-14T22:54:39;99711.25;;;17.72;60.86
43804;BME280;29430;52.924;-2.388;2023-06-14T22:59:33;99702.13;;;17.61;61.64
43804;BME280;29430;52.924;-2.388;2023-06-14T23:04:25;99713.31;;;17.54;62.05
43804;BME280;29430;52.924;-2.388;2023-06-14T23:09:17;99719.25;;;17.41;62.68
43804;BME280;29430;52.924;-2.388;2023-06-14T23:14:09;99710.13;;;17.30;63.11
43804;BME280;29430;52.924;-2.388;2023-06-14T23:19:01;99710.88;;;17.21;63.09
43804;BME280;29430;52.924;-2.388;2023-06-14T23:23:53;99719.31;;;17.14;63.62
43804;BME280;29430;52.924;-2.388;2023-06-14T23:28:46;99722.28;;;17.07;63.73
43804;BME280;29430;52.924;-2.388;2023-06-14T23:33:37;99726.59;;;16.98;64.08
43804;BME280;29430;52.924;-2.388;2023-06-14T23:38:30;99721.00;;;16.88;64.35
43804;BME280;29430;52.924;-2.388;2023-06-14T23:43:22;99723.06;;;16.80;64.71
43804;BME280;29430;52.924;-2.388;2023-06-14T23:48:16;99721.63;;;16.73;64.49
43804;BME280;29430;52.924;-2.388;2023-06-14T23:53:08;99721.03;;;16.65;65.55
43804;BME280;29430;52.924;-2.388;2023-06-14T23:58:00;99719.25;;;16.54;65.77
